sensor_id;sensor_type;location;lat;lon;timestamp;temperature;humidity
12166;DHT22;6146;48.128;11.476;2023-02-15T00:01:41;0.80;99.90
12166;DHT22;6146;48.128;11.476;2023-02-15T00:04:07;0.80;99.90
12166;DHT22;6146;48.128;11.476;2023-02-15T00:06:33;0.80;99.90
12166;DHT22;6146;48.128;11.476;2023-02-15T00:08:59;0.80;99.90
12166;DHT22;6146;48.128;11.476;2023-02-15T00:11:25;0.90;99.90
12166;DHT22;6146;48.128;11.476;2023-02-15T00:14:25;0.90;99.90
12166;DHT22;6146;48.128;11.476;2023-02-15T00:16:52;1.00;99.90
12166;DHT22;6146;48.128;11.476;2023-02-15T00:19:19;1.00;99.90
12166;DHT22;6146;48.128;11.476;2023-02-15T00:21:46;1.00;99.90
12166;DHT22;6146;48.128;11.476;2023-02-15T00:24:14;0.80;99.90
12166;DHT22;6146;48.128;11.476;2023-02-15T00:26:40;0.70;99.90
12166;DHT22;6146;48.128;11.476;2023-02-15T00:29:07;0.60;99.90
12166;DHT22;6146;48.128;11.476;2023-02-15T00:31:33;0.60;99.90
12166;DHT22;6146;48.128;11.476;2023-02-15T00:36:28;0.50;99.90
12166;DHT22;6146;48.128;11.476;2023-02-15T00:38:54;0.50;99.90
12166;DHT22;6146;48.128;11.476;2023-02-15T00:41:19;0.50;99.90
12166;DHT22;6146;48.128;11.476;2023-02-15T00:43:45;0.70;99.90
12166;DHT22;6146;48.128;11.476;2023-02-15T00:46:10;0.70;99.90
12166;DHT22;6146;48.128;11.476;2023-02-15T00:48:36;0.70;99.90
12166;DHT22;6146;48.128;11.476;2023-02-15T00:51:02;0.50;99.90
12166;DHT22;6146;48.128;11.476;2023-02-15T00:53:28;0.50;99.90
12166;DHT22;6146;48.128;11.476;2023-02-15T00:55:54;0.40;99.90
12166;DHT22;6146;48.128;11.476;2023-02-15T00:58:19;0.40;99.90
12166;DHT22;6146;48.128;11.476;2023-02-15T01:00:46;0.40;99.90
12166;DHT22;6146;48.128;11.476;2023-02-15T01:03:14;0.30;99.90
12166;DHT22;6146;48.128;11.476;2023-02-15T01:05:40;0.30;99.90
12166;DHT22;6146;48.128;11.476;2023-02-15T01:08:06;0.40;99.90
12166;DHT22;6146;48.128;11.476;2023-02-15T01:10:33;0.50;99.90
12166;DHT22;6146;48.128;11.476;2023-02-15T01:12:59;0.50;99.90
12166;DHT22;6146;48.128;11.476;2023-02-15T01:15:24;0.50;99.90
12166;DHT22;6146;48.128;11.476;2023-02-15T01:17:50;0.40;99.90
12166;DHT22;6146;48.128;11.476;2023-02-15T01:20:24;0.40;99.90
12166;DHT22;6146;48.128;11.476;2023-02-15T01:22:50;0.50;99.90
12166;DHT22;6146;48.128;11.476;2023-02-15T01:25:20;0.40;99.90
12166;DHT22;6146;48.128;11.476;2023-02-15T01:27:46;0.50;99.90
12166;DHT22;6146;48.128;11.476;2023-02-15T01:30:13;0.50;99.90
12166;DHT22;6146;48.128;11.476;2023-02-15T01:32:40;0.50;99.90
12166;DHT22;6146;48.128;11.476;2023-02-15T01:35:06;0.50;99.90
12166;DHT22;6146;48.128;11.476;2023-02-15T01:37:32;0.50;99.90
12166;DHT22;6146;48.128;11.476;2023-02-15T01:39:58;0.60;99.90
12166;DHT22;6146;48.128;11.476;2023-02-15T01:42:27;0.50;99.90
12166;DHT22;6146;48.128;11.476;2023-02-15T01:47:39;0.50;99.90
12166;DHT22;6146;48.128;11.476;2023-02-15T01:50:11;0.50;99.90
12166;DHT22;6146;48.128;11.476;2023-02-15T01:52:40;0.40;99.90
12166;DHT22;6146;48.128;11.476;2023-02-15T01:55:10;0.10;99.90
12166;DHT22;6146;48.128;11.476;2023-02-15T01:57:38;-0.10;99.90
12166;DHT22;6146;48.128;11.476;2023-02-15T02:00:04;-0.10;99.90
12166;DHT22;6146;48.128;11.476;2023-02-15T02:02:31;0.00;99.90
12166;DHT22;6146;48.128;11.476;2023-02-15T02:05:00;0.10;99.90
12166;DHT22;6146;48.128;11.476;2023-02-15T02:07:29;0.10;99.90
12166;DHT22;6146;48.128;11.476;2023-02-15T02:09:57;0.00;99.90
12166;DHT22;6146;48.128;11.476;2023-02-15T02:12:24;-0.10;99.90
12166;DHT22;6146;48.128;11.476;2023-02-15T02:14:51;-0.20;99.90
12166;DHT22;6146;48.128;11.476;2023-02-15T02:20:51;-0.20;99.90
12166;DHT22;6146;48.128;11.476;2023-02-15T02:36:40;-0.50;99.90
12166;DHT22;6146;48.128;11.476;2023-02-15T02:39:14;-0.40;99.90
12166;DHT22;6146;48.128;11.476;2023-02-15T02:41:54;-0.40;99.90
12166;DHT22;6146;48.128;11.476;2023-02-15T02:46:58;-0.40;99.90
12166;DHT22;6146;48.128;11.476;2023-02-15T02:49:33;-0.50;99.90
12166;DHT22;6146;48.128;11.476;2023-02-15T02:52:31;-0.40;99.90
12166;DHT22;6146;48.128;11.476;2023-02-15T02:54:49;-0.40;99.90
12166;DHT22;6146;48.128;11.476;2023-02-15T02:57:14;-0.40;99.90
12166;DHT22;6146;48.128;11.476;2023-02-15T02:59:43;-0.40;99.90
12166;DHT22;6146;48.128;11.476;2023-02-15T03:02:21;-0.30;99.90
12166;DHT22;6146;48.128;11.476;2023-02-15T03:04:53;-0.40;99.90
12166;DHT22;6146;48.128;11.476;2023-02-15T03:07:25;-0.40;99.90
12166;DHT22;6146;48.128;11.476;2023-02-15T03:09:54;-0.40;99.90
12166;DHT22;6146;48.128;11.476;2023-02-15T03:12:24;-0.40;99.90
12166;DHT22;6146;48.128;11.476;2023-02-15T03:14:55;-0.40;99.90
12166;DHT22;6146;48.128;11.476;2023-02-15T03:17:23;-0.30;99.90
12166;DHT22;6146;48.128;11.476;2023-02-15T03:19:55;-0.20;99.90
12166;DHT22;6146;48.128;11.476;2023-02-15T03:22:29;-0.20;99.90
12166;DHT22;6146;48.128;11.476;2023-02-15T03:25:00;-0.10;99.90
12166;DHT22;6146;48.128;11.476;2023-02-15T03:27:32;-0.10;99.90
12166;DHT22;6146;48.128;11.476;2023-02-15T03:29:59;-0.10;99.90
12166;DHT22;6146;48.128;11.476;2023-02-15T03:32:28;-0.10;99.90
12166;DHT22;6146;48.128;11.476;2023-02-15T03:34:55;-0.10;99.90
12166;DHT22;6146;48.128;11.476;2023-02-15T03:39:56;0.00;99.90
12166;DHT22;6146;48.128;11.476;2023-02-15T03:42:44;0.00;99.90
12166;DHT22;6146;48.128;11.476;2023-02-15T03:45:15;0.00;99.90
12166;DHT22;6146;48.128;11.476;2023-02-15T03:47:45;0.00;99.90
12166;DHT22;6146;48.128;11.476;2023-02-15T03:50:21;0.00;99.90
12166;DHT22;6146;48.128;11.476;2023-02-15T03:53:09;0.00;99.90
12166;DHT22;6146;48.128;11.476;2023-02-15T03:55:36;0.00;99.90
12166;DHT22;6146;48.128;11.476;2023-02-15T03:58:03;0.00;99.90
12166;DHT22;6146;48.128;11.476;2023-02-15T04:01:03;-1.90;99.90
12166;DHT22;6146;48.128;11.476;2023-02-15T04:03:57;0.10;99.90
12166;DHT22;6146;48.128;11.476;2023-02-15T04:06:24;0.10;99.90
12166;DHT22;6146;48.128;11.476;2023-02-15T04:08:50;0.00;99.90
12166;DHT22;6146;48.128;11.476;2023-02-15T04:11:34;-0.20;99.90
12166;DHT22;6146;48.128;11.476;2023-02-15T04:13:59;-0.30;99.90
12166;DHT22;6146;48.128;11.476;2023-02-15T04:16:45;-0.30;99.90
12166;DHT22;6146;48.128;11.476;2023-02-15T04:19:10;-0.40;99.90
12166;DHT22;6146;48.128;11.476;2023-02-15T04:21:54;-0.40;99.90
12166;DHT22;6146;48.128;11.476;2023-02-15T04:24:38;-0.30;99.90
12166;DHT22;6146;48.128;11.476;2023-02-15T04:27:22;-0.30;99.90
12166;DHT22;6146;48.128;11.476;2023-02-15T04:29:48;-0.40;99.90
12166;DHT22;6146;48.128;11.476;2023-02-15T04:32:15;-0.30;99.90
12166;DHT22;6146;48.128;11.476;2023-02-15T04:34:40;-0.40;99.90
12166;DHT22;6146;48.128;11.476;2023-02-15T04:37:06;-0.40;99.90
12166;DHT22;6146;48.128;11.476;2023-02-15T04:39:31;-0.30;99.90
12166;DHT22;6146;48.128;11.476;2023-02-15T04:41:57;-0.30;99.90
12166;DHT22;6146;48.128;11.476;2023-02-15T04:44:23;-0.30;99.90
12166;DHT22;6146;48.128;11.476;2023-02-15T04:46:48;-0.30;99.90
12166;DHT22;6146;48.128;11.476;2023-02-15T04:49:14;-0.30;99.90
12166;DHT22;6146;48.128;11.476;2023-02-15T04:51:40;-0.30;99.90
12166;DHT22;6146;48.128;11.476;2023-02-15T04:54:05;-0.20;99.90
12166;DHT22;6146;48.128;11.476;2023-02-15T04:56:31;-0.20;99.90
12166;DHT22;6146;48.128;11.476;2023-02-15T04:58:58;-0.30;99.90
12166;DHT22;6146;48.128;11.476;2023-02-15T05:01:24;-0.20;99.90
12166;DHT22;6146;48.128;11.476;2023-02-15T05:03:49;-0.20;99.90
12166;DHT22;6146;48.128;11.476;2023-02-15T05:06:15;-0.20;99.90
12166;DHT22;6146;48.128;11.476;2023-02-15T05:08:40;-0.20;99.90
12166;DHT22;6146;48.128;11.476;2023-02-15T05:11:06;-0.20;99.90
12166;DHT22;6146;48.128;11.476;2023-02-15T05:13:31;-0.30;99.90
12166;DHT22;6146;48.128;11.476;2023-02-15T05:15:57;-0.40;99.90
12166;DHT22;6146;48.128;11.476;2023-02-15T05:18:23;-0.50;99.90
12166;DHT22;6146;48.128;11.476;2023-02-15T05:20:48;-0.50;99.90
12166;DHT22;6146;48.128;11.476;2023-02-15T05:23:14;-0.40;99.90
12166;DHT22;6146;48.128;11.476;2023-02-15T05:25:40;-0.50;99.90
12166;DHT22;6146;48.128;11.476;2023-02-15T05:28:26;-0.40;99.90
12166;DHT22;6146;48.128;11.476;2023-02-15T05:31:08;-0.50;99.90
12166;DHT22;6146;48.128;11.476;2023-02-15T05:33:35;-0.50;99.90
12166;DHT22;6146;48.128;11.476;2023-02-15T05:36:01;-0.50;99.90
12166;DHT22;6146;48.128;11.476;2023-02-15T05:38:26;-0.50;99.90
12166;DHT22;6146;48.128;11.476;2023-02-15T05:40:52;-0.50;99.90
12166;DHT22;6146;48.128;11.476;2023-02-15T05:43:18;-0.50;99.90
12166;DHT22;6146;48.128;11.476;2023-02-15T05:45:52;-0.50;99.90
12166;DHT22;6146;48.128;11.476;2023-02-15T05:48:20;-0.50;99.90
12166;DHT22;6146;48.128;11.476;2023-02-15T05:50:46;-0.50;99.90
12166;DHT22;6146;48.128;11.476;2023-02-15T05:53:11;-0.50;99.90
12166;DHT22;6146;48.128;11.476;2023-02-15T05:55:38;-0.40;99.90
12166;DHT22;6146;48.128;11.476;2023-02-15T05:58:04;-0.40;99.90
12166;DHT22;6146;48.128;11.476;2023-02-15T06:00:30;-0.50;99.90
12166;DHT22;6146;48.128;11.476;2023-02-15T06:02:55;-0.50;99.90
12166;DHT22;6146;48.128;11.476;2023-02-15T06:05:21;-0.50;99.90
12166;DHT22;6146;48.128;11.476;2023-02-15T06:07:46;-0.40;99.90
12166;DHT22;6146;48.128;11.476;2023-02-15T06:10:12;-0.40;99.90
12166;DHT22;6146;48.128;11.476;2023-02-15T06:12:37;-0.40;99.90
12166;DHT22;6146;48.128;11.476;2023-02-15T06:15:04;-0.40;99.90
12166;DHT22;6146;48.128;11.476;2023-02-15T06:17:30;-0.40;99.90
12166;DHT22;6146;48.128;11.476;2023-02-15T06:19:55;-0.30;99.90
12166;DHT22;6146;48.128;11.476;2023-02-15T06:22:21;-0.30;99.90
12166;DHT22;6146;48.128;11.476;2023-02-15T06:24:47;-0.30;99.90
12166;DHT22;6146;48.128;11.476;2023-02-15T06:27:12;-0.30;99.90
12166;DHT22;6146;48.128;11.476;2023-02-15T06:29:39;-0.30;99.90
12166;DHT22;6146;48.128;11.476;2023-02-15T06:32:05;-0.40;99.90
12166;DHT22;6146;48.128;11.476;2023-02-15T06:34:30;-0.40;99.90
12166;DHT22;6146;48.128;11.476;2023-02-15T06:36:56;-0.40;99.90
12166;DHT22;6146;48.128;11.476;2023-02-15T06:39:21;-0.40;99.90
12166;DHT22;6146;48.128;11.476;2023-02-15T06:41:47;-0.40;99.90
12166;DHT22;6146;48.128;11.476;2023-02-15T06:44:14;-0.50;99.90
12166;DHT22;6146;48.128;11.476;2023-02-15T06:46:39;-0.50;99.90
12166;DHT22;6146;48.128;11.476;2023-02-15T06:49:05;-0.50;99.90
12166;DHT22;6146;48.128;11.476;2023-02-15T06:51:30;-0.60;99.90
12166;DHT22;6146;48.128;11.476;2023-02-15T06:53:56;-0.50;99.90
12166;DHT22;6146;48.128;11.476;2023-02-15T06:56:22;-0.50;99.90
12166;DHT22;6146;48.128;11.476;2023-02-15T06:58:47;-0.50;99.90
12166;DHT22;6146;48.128;11.476;2023-02-15T07:01:15;-0.50;99.90
12166;DHT22;6146;48.128;11.476;2023-02-15T07:03:40;-0.40;99.90
12166;DHT22;6146;48.128;11.476;2023-02-15T07:06:06;-0.30;99.90
12166;DHT22;6146;48.128;11.476;2023-02-15T07:08:34;-0.20;99.90
12166;DHT22;6146;48.128;11.476;2023-02-15T07:11:00;-0.20;99.90
12166;DHT22;6146;48.128;11.476;2023-02-15T07:13:45;-0.20;99.90
12166;DHT22;6146;48.128;11.476;2023-02-15T07:16:11;-0.30;99.90
12166;DHT22;6146;48.128;11.476;2023-02-15T07:18:37;-0.50;99.90
12166;DHT22;6146;48.128;11.476;2023-02-15T07:21:03;-0.40;99.90
12166;DHT22;6146;48.128;11.476;2023-02-15T07:23:29;-0.30;99.90
12166;DHT22;6146;48.128;11.476;2023-02-15T07:25:58;-0.30;99.90
12166;DHT22;6146;48.128;11.476;2023-02-15T07:28:24;-0.30;99.90
12166;DHT22;6146;48.128;11.476;2023-02-15T07:30:50;-0.30;99.90
12166;DHT22;6146;48.128;11.476;2023-02-15T07:33:15;-0.20;99.90
12166;DHT22;6146;48.128;11.476;2023-02-15T07:35:57;-0.10;99.90
12166;DHT22;6146;48.128;11.476;2023-02-15T07:38:24;0.10;99.90
12166;DHT22;6146;48.128;11.476;2023-02-15T07:40:50;0.30;99.90
12166;DHT22;6146;48.128;11.476;2023-02-15T07:43:16;0.30;99.90
12166;DHT22;6146;48.128;11.476;2023-02-15T07:45:42;0.20;99.90
12166;DHT22;6146;48.128;11.476;2023-02-15T07:48:07;0.10;99.90
12166;DHT22;6146;48.128;11.476;2023-02-15T07:50:33;0.20;99.90
12166;DHT22;6146;48.128;11.476;2023-02-15T07:53:01;0.40;99.90
12166;DHT22;6146;48.128;11.476;2023-02-15T07:55:27;0.50;99.90
12166;DHT22;6146;48.128;11.476;2023-02-15T07:57:53;0.60;99.90
12166;DHT22;6146;48.128;11.476;2023-02-15T08:00:20;0.70;99.90
12166;DHT22;6146;48.128;11.476;2023-02-15T08:02:52;0.60;99.90
12166;DHT22;6146;48.128;11.476;2023-02-15T08:05:36;0.70;99.90
12166;DHT22;6146;48.128;11.476;2023-02-15T08:08:02;0.60;99.90
12166;DHT22;6146;48.128;11.476;2023-02-15T08:10:28;0.60;99.90
12166;DHT22;6146;48.128;11.476;2023-02-15T08:13:12;0.70;99.90
12166;DHT22;6146;48.128;11.476;2023-02-15T08:15:37;0.90;99.90
12166;DHT22;6146;48.128;11.476;2023-02-15T08:18:03;0.90;99.90
12166;DHT22;6146;48.128;11.476;2023-02-15T08:20:29;1.20;99.90
12166;DHT22;6146;48.128;11.476;2023-02-15T08:22:54;1.40;99.90
12166;DHT22;6146;48.128;11.476;2023-02-15T08:25:20;1.50;99.90
12166;DHT22;6146;48.128;11.476;2023-02-15T08:27:45;1.50;99.90
12166;DHT22;6146;48.128;11.476;2023-02-15T08:30:11;1.50;99.90
12166;DHT22;6146;48.128;11.476;2023-02-15T08:32:37;1.60;99.90
12166;DHT22;6146;48.128;11.476;2023-02-15T08:35:03;2.00;99.90
12166;DHT22;6146;48.128;11.476;2023-02-15T08:37:28;2.10;99.90
12166;DHT22;6146;48.128;11.476;2023-02-15T08:39:54;2.40;99.90
12166;DHT22;6146;48.128;11.476;2023-02-15T08:42:19;2.80;99.90
12166;DHT22;6146;48.128;11.476;2023-02-15T08:44:46;3.10;99.90
12166;DHT22;6146;48.128;11.476;2023-02-15T08:47:11;3.40;99.90
12166;DHT22;6146;48.128;11.476;2023-02-15T08:49:37;3.40;99.90
12166;DHT22;6146;48.128;11.476;2023-02-15T08:52:03;3.90;99.90
12166;DHT22;6146;48.128;11.476;2023-02-15T08:54:28;4.30;99.90
12166;DHT22;6146;48.128;11.476;2023-02-15T08:56:54;4.30;99.90
12166;DHT22;6146;48.128;11.476;2023-02-15T08:59:21;4.10;99.90
12166;DHT22;6146;48.128;11.476;2023-02-15T09:01:49;3.60;99.90
12166;DHT22;6146;48.128;11.476;2023-02-15T09:04:15;4.00;99.90
12166;DHT22;6146;48.128;11.476;2023-02-15T09:06:42;4.80;99.90
12166;DHT22;6146;48.128;11.476;2023-02-15T09:09:10;5.30;99.90
12166;DHT22;6146;48.128;11.476;2023-02-15T09:11:39;5.80;99.90
12166;DHT22;6146;48.128;11.476;2023-02-15T09:14:11;6.20;99.90
12166;DHT22;6146;48.128;11.476;2023-02-15T09:16:39;6.20;99.90
12166;DHT22;6146;48.128;11.476;2023-02-15T09:19:06;6.40;99.90
12166;DHT22;6146;48.128;11.476;2023-02-15T09:21:33;7.10;99.90
12166;DHT22;6146;48.128;11.476;2023-02-15T09:24:02;8.10;99.90
12166;DHT22;6146;48.128;11.476;2023-02-15T09:26:29;9.00;99.90
12166;DHT22;6146;48.128;11.476;2023-02-15T09:28:58;9.40;99.90
12166;DHT22;6146;48.128;11.476;2023-02-15T09:31:28;10.80;99.90
12166;DHT22;6146;48.128;11.476;2023-02-15T09:33:55;11.80;99.90
12166;DHT22;6146;48.128;11.476;2023-02-15T09:36:33;13.00;95.40
12166;DHT22;6146;48.128;11.476;2023-02-15T09:56:09;13.90;80.90
12166;DHT22;6146;48.128;11.476;2023-02-15T10:04:22;15.30;73.30
12166;DHT22;6146;48.128;11.476;2023-02-15T10:10:11;15.50;73.00
12166;DHT22;6146;48.128;11.476;2023-02-15T10:13:09;15.50;71.70
12166;DHT22;6146;48.128;11.476;2023-02-15T10:27:19;16.90;65.80
12166;DHT22;6146;48.128;11.476;2023-02-15T10:32:27;17.90;65.30
12166;DHT22;6146;48.128;11.476;2023-02-15T10:35:20;19.40;60.00
12166;DHT22;6146;48.128;11.476;2023-02-15T10:38:09;20.70;57.00
12166;DHT22;6146;48.128;11.476;2023-02-15T10:43:43;21.90;51.20
12166;DHT22;6146;48.128;11.476;2023-02-15T10:57:09;18.30;55.50
12166;DHT22;6146;48.128;11.476;2023-02-15T11:02:20;20.20;53.80
12166;DHT22;6146;48.128;11.476;2023-02-15T11:04:50;19.70;54.40
12166;DHT22;6146;48.128;11.476;2023-02-15T11:07:23;21.20;52.00
12166;DHT22;6146;48.128;11.476;2023-02-15T11:09:53;22.50;48.90
12166;DHT22;6146;48.128;11.476;2023-02-15T11:12:24;24.00;46.70
12166;DHT22;6146;48.128;11.476;2023-02-15T11:17:35;23.20;46.20
12166;DHT22;6146;48.128;11.476;2023-02-15T11:22:35;23.30;44.30
12166;DHT22;6146;48.128;11.476;2023-02-15T11:25:04;23.20;44.70
12166;DHT22;6146;48.128;11.476;2023-02-15T11:27:39;24.40;43.30
12166;DHT22;6146;48.128;11.476;2023-02-15T11:32:43;22.90;43.70
12166;DHT22;6146;48.128;11.476;2023-02-15T11:37:47;24.20;42.60
12166;DHT22;6146;48.128;11.476;2023-02-15T11:42:53;25.50;40.40
12166;DHT22;6146;48.128;11.476;2023-02-15T11:47:49;26.00;39.60
12166;DHT22;6146;48.128;11.476;2023-02-15T11:50:18;27.00;38.00
12166;DHT22;6146;48.128;11.476;2023-02-15T11:52:48;26.90;37.40
12166;DHT22;6146;48.128;11.476;2023-02-15T11:55:19;27.10;35.70
12166;DHT22;6146;48.128;11.476;2023-02-15T11:57:54;27.40;36.00
12166;DHT22;6146;48.128;11.476;2023-02-15T12:00:42;26.40;36.20
12166;DHT22;6146;48.128;11.476;2023-02-15T12:03:18;26.50;36.50
12166;DHT22;6146;48.128;11.476;2023-02-15T12:05:49;27.20;35.70
12166;DHT22;6146;48.128;11.476;2023-02-15T12:08:22;27.70;34.90
12166;DHT22;6146;48.128;11.476;2023-02-15T12:11:17;28.10;34.60
12166;DHT22;6146;48.128;11.476;2023-02-15T12:13:59;26.30;35.90
12166;DHT22;6146;48.128;11.476;2023-02-15T12:16:26;24.70;38.50
12166;DHT22;6146;48.128;11.476;2023-02-15T12:18:56;22.90;40.00
12166;DHT22;6146;48.128;11.476;2023-02-15T12:21:41;22.60;42.90
12166;DHT22;6146;48.128;11.476;2023-02-15T12:24:19;23.40;41.30
12166;DHT22;6146;48.128;11.476;2023-02-15T12:27:05;23.40;41.40
12166;DHT22;6146;48.128;11.476;2023-02-15T12:32:27;22.10;44.50
12166;DHT22;6146;48.128;11.476;2023-02-15T12:35:26;21.60;44.30
12166;DHT22;6146;48.128;11.476;2023-02-15T12:37:56;22.00;43.60
12166;DHT22;6146;48.128;11.476;2023-02-15T12:40:32;22.00;44.40
12166;DHT22;6146;48.128;11.476;2023-02-15T12:42:59;23.40;42.90
12166;DHT22;6146;48.128;11.476;2023-02-15T12:45:36;24.90;40.00
12166;DHT22;6146;48.128;11.476;2023-02-15T12:48:28;26.20;37.30
12166;DHT22;6146;48.128;11.476;2023-02-15T12:51:07;26.40;35.80
12166;DHT22;6146;48.128;11.476;2023-02-15T12:53:35;25.80;36.70
12166;DHT22;6146;48.128;11.476;2023-02-15T12:56:06;26.10;37.10
12166;DHT22;6146;48.128;11.476;2023-02-15T12:58:39;25.60;37.30
12166;DHT22;6146;48.128;11.476;2023-02-15T13:03:35;26.50;35.40
12166;DHT22;6146;48.128;11.476;2023-02-15T13:06:04;26.70;36.70
12166;DHT22;6146;48.128;11.476;2023-02-15T13:08:35;24.50;39.10
12166;DHT22;6146;48.128;11.476;2023-02-15T13:11:08;25.00;38.20
12166;DHT22;6146;48.128;11.476;2023-02-15T13:14:01;25.70;37.50
12166;DHT22;6146;48.128;11.476;2023-02-15T13:16:48;25.40;37.20
12166;DHT22;6146;48.128;11.476;2023-02-15T13:22:03;25.80;36.50
12166;DHT22;6146;48.128;11.476;2023-02-15T13:24:39;26.70;35.80
12166;DHT22;6146;48.128;11.476;2023-02-15T13:27:12;26.30;36.00
12166;DHT22;6146;48.128;11.476;2023-02-15T13:29:39;24.90;36.60
12166;DHT22;6146;48.128;11.476;2023-02-15T13:32:22;23.20;40.30
12166;DHT22;6146;48.128;11.476;2023-02-15T13:34:49;23.80;39.80
12166;DHT22;6146;48.128;11.476;2023-02-15T13:40:24;24.80;36.90
12166;DHT22;6146;48.128;11.476;2023-02-15T13:42:56;23.10;39.70
12166;DHT22;6146;48.128;11.476;2023-02-15T13:45:44;20.80;44.10
12166;DHT22;6146;48.128;11.476;2023-02-15T13:51:34;19.20;48.00
12166;DHT22;6146;48.128;11.476;2023-02-15T13:57:05;21.70;44.10
12166;DHT22;6146;48.128;11.476;2023-02-15T13:59:46;21.90;43.50
12166;DHT22;6146;48.128;11.476;2023-02-15T14:18:42;13.90;61.60
12166;DHT22;6146;48.128;11.476;2023-02-15T14:21:29;12.60;67.90
12166;DHT22;6146;48.128;11.476;2023-02-15T14:24:08;12.40;71.10
12166;DHT22;6146;48.128;11.476;2023-02-15T14:26:58;12.00;71.80
12166;DHT22;6146;48.128;11.476;2023-02-15T14:29:59;13.00;70.50
12166;DHT22;6146;48.128;11.476;2023-02-15T14:32:54;14.40;65.50
12166;DHT22;6146;48.128;11.476;2023-02-15T14:35:24;14.10;64.50
12166;DHT22;6146;48.128;11.476;2023-02-15T14:38:10;14.20;65.50
12166;DHT22;6146;48.128;11.476;2023-02-15T14:40:47;14.50;64.70
12166;DHT22;6146;48.128;11.476;2023-02-15T14:48:57;12.70;71.00
12166;DHT22;6146;48.128;11.476;2023-02-15T14:56:46;11.80;76.90
12166;DHT22;6146;48.128;11.476;2023-02-15T14:59:54;11.60;78.40
12166;DHT22;6146;48.128;11.476;2023-02-15T15:02:43;11.40;80.20
12166;DHT22;6146;48.128;11.476;2023-02-15T15:05:20;11.20;81.70
12166;DHT22;6146;48.128;11.476;2023-02-15T15:07:57;10.90;83.30
12166;DHT22;6146;48.128;11.476;2023-02-15T15:18:04;10.20;90.60
12166;DHT22;6146;48.128;11.476;2023-02-15T15:20:56;10.10;91.00
12166;DHT22;6146;48.128;11.476;2023-02-15T15:25:57;9.90;92.50
12166;DHT22;6146;48.128;11.476;2023-02-15T15:50:19;8.90;99.90
12166;DHT22;6146;48.128;11.476;2023-02-15T15:52:50;8.80;99.90
12166;DHT22;6146;48.128;11.476;2023-02-15T15:55:19;8.60;99.90
12166;DHT22;6146;48.128;11.476;2023-02-15T15:57:47;8.40;99.90
12166;DHT22;6146;48.128;11.476;2023-02-15T16:00:43;8.30;99.90
12166;DHT22;6146;48.128;11.476;2023-02-15T16:05:45;7.90;99.90
12166;DHT22;6146;48.128;11.476;2023-02-15T16:08:11;7.70;99.90
12166;DHT22;6146;48.128;11.476;2023-02-15T16:10:36;7.60;99.90
12166;DHT22;6146;48.128;11.476;2023-02-15T16:13:05;7.40;99.90
12166;DHT22;6146;48.128;11.476;2023-02-15T16:15:35;7.30;99.90
12166;DHT22;6146;48.128;11.476;2023-02-15T16:18:02;7.10;99.90
12166;DHT22;6146;48.128;11.476;2023-02-15T16:20:33;7.00;99.90
12166;DHT22;6146;48.128;11.476;2023-02-15T16:23:09;6.90;99.90
12166;DHT22;6146;48.128;11.476;2023-02-15T16:25:43;6.60;99.90
12166;DHT22;6146;48.128;11.476;2023-02-15T16:28:12;6.40;99.90
12166;DHT22;6146;48.128;11.476;2023-02-15T16:30:39;6.20;99.90
12166;DHT22;6146;48.128;11.476;2023-02-15T16:33:11;6.00;99.90
12166;DHT22;6146;48.128;11.476;2023-02-15T16:35:39;5.80;99.90
12166;DHT22;6146;48.128;11.476;2023-02-15T16:38:08;5.60;99.90
12166;DHT22;6146;48.128;11.476;2023-02-15T16:40:52;5.40;99.90
12166;DHT22;6146;48.128;11.476;2023-02-15T16:43:25;5.20;99.90
12166;DHT22;6146;48.128;11.476;2023-02-15T16:46:06;5.10;99.90
12166;DHT22;6146;48.128;11.476;2023-02-15T16:48:33;4.90;99.90
12166;DHT22;6146;48.128;11.476;2023-02-15T16:51:04;4.70;99.90
12166;DHT22;6146;48.128;11.476;2023-02-15T16:53:30;4.50;99.90
12166;DHT22;6146;48.128;11.476;2023-02-15T16:55:58;4.40;99.90
12166;DHT22;6146;48.128;11.476;2023-02-15T16:58:43;4.30;99.90
12166;DHT22;6146;48.128;11.476;2023-02-15T17:01:11;4.10;99.90
12166;DHT22;6146;48.128;11.476;2023-02-15T17:03:39;3.90;99.90
12166;DHT22;6146;48.128;11.476;2023-02-15T17:06:22;3.80;99.90
12166;DHT22;6146;48.128;11.476;2023-02-15T17:08:48;3.70;99.90
12166;DHT22;6146;48.128;11.476;2023-02-15T17:11:17;3.60;99.90
12166;DHT22;6146;48.128;11.476;2023-02-15T17:16:36;3.30;99.90
12166;DHT22;6146;48.128;11.476;2023-02-15T17:19:09;3.20;99.90
12166;DHT22;6146;48.128;11.476;2023-02-15T17:21:45;3.20;99.90
12166;DHT22;6146;48.128;11.476;2023-02-15T17:24:36;3.10;99.90
12166;DHT22;6146;48.128;11.476;2023-02-15T17:27:06;3.00;99.90
12166;DHT22;6146;48.128;11.476;2023-02-15T17:29:38;2.90;99.90
12166;DHT22;6146;48.128;11.476;2023-02-15T17:32:05;2.80;99.90
12166;DHT22;6146;48.128;11.476;2023-02-15T17:37:30;2.70;99.90
12166;DHT22;6146;48.128;11.476;2023-02-15T17:39:57;2.70;99.90
12166;DHT22;6146;48.128;11.476;2023-02-15T17:42:23;2.70;99.90
12166;DHT22;6146;48.128;11.476;2023-02-15T17:44:49;2.70;99.90
12166;DHT22;6146;48.128;11.476;2023-02-15T17:47:16;2.60;99.90
12166;DHT22;6146;48.128;11.476;2023-02-15T17:49:43;2.60;99.90
12166;DHT22;6146;48.128;11.476;2023-02-15T17:52:13;2.60;99.90
12166;DHT22;6146;48.128;11.476;2023-02-15T17:54:39;2.50;99.90
12166;DHT22;6146;48.128;11.476;2023-02-15T17:57:24;2.50;99.90
12166;DHT22;6146;48.128;11.476;2023-02-15T17:59:51;2.40;99.90
12166;DHT22;6146;48.128;11.476;2023-02-15T18:02:35;2.30;99.90
12166;DHT22;6146;48.128;11.476;2023-02-15T18:05:19;2.20;99.90
12166;DHT22;6146;48.128;11.476;2023-02-15T18:08:08;2.20;99.90
12166;DHT22;6146;48.128;11.476;2023-02-15T18:10:53;2.10;99.90
12166;DHT22;6146;48.128;11.476;2023-02-15T18:13:37;2.00;99.90
12166;DHT22;6146;48.128;11.476;2023-02-15T18:16:03;2.00;99.90
12166;DHT22;6146;48.128;11.476;2023-02-15T18:18:29;1.90;99.90
12166;DHT22;6146;48.128;11.476;2023-02-15T18:20:54;1.90;99.90
12166;DHT22;6146;48.128;11.476;2023-02-15T18:23:20;1.80;99.90
12166;DHT22;6146;48.128;11.476;2023-02-15T18:25:45;1.80;99.90
12166;DHT22;6146;48.128;11.476;2023-02-15T18:28:11;1.70;99.90
12166;DHT22;6146;48.128;11.476;2023-02-15T18:30:39;1.70;99.90
12166;DHT22;6146;48.128;11.476;2023-02-15T18:33:37;1.60;99.90
12166;DHT22;6146;48.128;11.476;2023-02-15T18:36:05;1.60;99.90
12166;DHT22;6146;48.128;11.476;2023-02-15T18:38:31;1.50;99.90
12166;DHT22;6146;48.128;11.476;2023-02-15T18:40:57;1.50;99.90
12166;DHT22;6146;48.128;11.476;2023-02-15T18:43:23;1.40;99.90
12166;DHT22;6146;48.128;11.476;2023-02-15T18:45:49;1.40;99.90
12166;DHT22;6146;48.128;11.476;2023-02-15T18:48:14;1.30;99.90
12166;DHT22;6146;48.128;11.476;2023-02-15T18:50:40;1.20;99.90
12166;DHT22;6146;48.128;11.476;2023-02-15T18:53:15;1.20;99.90
12166;DHT22;6146;48.128;11.476;2023-02-15T18:55:41;0.90;99.90
12166;DHT22;6146;48.128;11.476;2023-02-15T18:58:25;0.80;99.90
12166;DHT22;6146;48.128;11.476;2023-02-15T19:00:52;0.70;99.90
12166;DHT22;6146;48.128;11.476;2023-02-15T19:03:19;0.70;99.90
12166;DHT22;6146;48.128;11.476;2023-02-15T19:05:45;0.80;99.90